createdAt,value
2022-10-24T00:01:44.995Z,15.86
2022-10-24T00:04:13.509Z,15.85
2022-10-24T00:06:42.244Z,15.86
2022-10-24T00:09:10.579Z,15.86
2022-10-24T00:11:39.238Z,15.87
2022-10-24T00:14:07.722Z,15.86
2022-10-24T00:16:37.424Z,15.88
2022-10-24T00:19:06.201Z,15.90
2022-10-24T00:21:34.602Z,15.90
2022-10-24T00:24:02.999Z,15.91
2022-10-24T00:26:31.339Z,15.92
2022-10-24T00:31:33.355Z,15.94
2022-10-24T00:34:03.683Z,15.94
2022-10-24T00:36:32.594Z,15.95
2022-10-24T00:39:00.915Z,15.93
2022-10-24T00:41:31.911Z,15.95
2022-10-24T00:44:31.432Z,15.93
2022-10-24T00:47:04.258Z,15.93
2022-10-24T00:49:41.097Z,15.93
2022-10-24T00:52:10.579Z,15.92
2022-10-24T00:54:41.579Z,15.92
2022-10-24T00:57:16.131Z,15.94
2022-10-24T00:59:46.277Z,15.93
2022-10-24T01:04:49.615Z,15.94
2022-10-24T01:07:30.898Z,15.95
2022-10-24T01:10:19.858Z,15.95
2022-10-24T01:13:03.518Z,15.96
2022-10-24T01:15:39.999Z,15.96
2022-10-24T01:18:13.992Z,15.95
2022-10-24T01:21:11.212Z,15.97
2022-10-24T01:24:16.807Z,15.98
2022-10-24T01:26:58.094Z,15.96
2022-10-24T01:29:44.637Z,15.97
2022-10-24T01:32:18.248Z,15.97
2022-10-24T01:34:51.674Z,15.98
2022-10-24T01:37:26.503Z,15.98
2022-10-24T01:39:58.780Z,16.00
2022-10-24T01:42:31.173Z,15.99
2022-10-24T01:45:02.726Z,16.00
2022-10-24T01:47:36.457Z,16.01
2022-10-24T01:50:10.942Z,16.01
2022-10-24T01:52:43.304Z,16.00
2022-10-24T01:55:12.685Z,16.00
2022-10-24T01:57:42.491Z,15.98
2022-10-24T02:00:18.901Z,15.98
2022-10-24T02:02:51.255Z,15.98
2022-10-24T02:05:25.141Z,15.98
2022-10-24T02:07:57.404Z,15.98
2022-10-24T02:10:30.708Z,15.99
2022-10-24T02:13:04.168Z,16.00
2022-10-24T02:15:37.848Z,16.02
2022-10-24T02:18:07.143Z,16.02
2022-10-24T02:20:39.784Z,16.02
2022-10-24T02:23:15.376Z,16.02
2022-10-24T02:25:49.346Z,16.01
2022-10-24T02:28:22.090Z,16.00
2022-10-24T02:30:57.026Z,16.00
2022-10-24T02:33:27.436Z,16.01
2022-10-24T02:35:56.937Z,16.01
2022-10-24T02:38:29.707Z,16.02
2022-10-24T02:40:59.743Z,16.01
2022-10-24T02:43:29.820Z,16.01
2022-10-24T02:45:59.926Z,16.01
2022-10-24T02:48:31.465Z,16.00
2022-10-24T02:51:00.907Z,15.98
2022-10-24T02:53:29.799Z,15.98
2022-10-24T02:55:58.248Z,15.98
2022-10-24T02:58:26.619Z,15.98
2022-10-24T03:00:55.015Z,15.97
2022-10-24T03:03:24.702Z,15.97
2022-10-24T03:05:52.985Z,15.98
2022-10-24T03:08:21.298Z,15.98
2022-10-24T03:10:49.613Z,15.98
2022-10-24T03:13:18.004Z,15.98
2022-10-24T03:18:15.831Z,15.99
2022-10-24T03:20:46.425Z,15.98
2022-10-24T03:23:14.847Z,15.98
2022-10-24T03:25:43.521Z,16.00
2022-10-24T03:28:11.837Z,15.99
2022-10-24T03:30:40.272Z,15.98
2022-10-24T03:33:08.581Z,15.98
2022-10-24T03:35:37.439Z,15.98
2022-10-24T03:38:08.156Z,15.98
2022-10-24T03:40:36.560Z,15.98
2022-10-24T03:43:05.489Z,15.97
2022-10-24T03:45:33.835Z,15.96
2022-10-24T03:48:02.132Z,15.95
2022-10-24T03:50:30.499Z,15.94
2022-10-24T03:52:58.818Z,15.93
2022-10-24T03:55:29.377Z,15.94
2022-10-24T03:57:57.687Z,15.93
2022-10-24T04:00:28.277Z,15.92
2022-10-24T04:02:56.667Z,15.92
2022-10-24T04:05:25.015Z,15.92
2022-10-24T04:07:53.403Z,15.91
2022-10-24T04:10:21.750Z,15.90
2022-10-24T04:12:51.561Z,15.91
2022-10-24T04:15:19.980Z,15.89
2022-10-24T04:17:48.447Z,15.88
2022-10-24T04:20:19.619Z,15.86
2022-10-24T04:22:48.273Z,15.87
2022-10-24T04:25:16.771Z,15.83
2022-10-24T04:27:45.528Z,15.84
2022-10-24T04:30:16.875Z,15.82
2022-10-24T04:32:46.041Z,15.82
2022-10-24T04:35:14.894Z,15.80
2022-10-24T04:37:43.270Z,15.79
2022-10-24T04:40:12.241Z,15.78
2022-10-24T04:42:40.602Z,15.77
2022-10-24T04:45:10.467Z,15.76
2022-10-24T04:47:40.138Z,15.74
2022-10-24T04:50:09.443Z,15.72
2022-10-24T04:52:37.811Z,15.72
2022-10-24T04:55:06.927Z,15.71
2022-10-24T04:57:35.252Z,15.71
2022-10-24T05:00:04.562Z,15.70
2022-10-24T05:02:32.953Z,15.70
2022-10-24T05:05:02.731Z,15.69
2022-10-24T05:07:31.081Z,15.69
2022-10-24T05:09:59.415Z,15.69
2022-10-24T05:12:27.806Z,15.68
2022-10-24T05:14:56.120Z,15.66
2022-10-24T05:17:24.614Z,15.66
2022-10-24T05:19:52.949Z,15.65
2022-10-24T05:22:22.645Z,15.63
2022-10-24T05:24:51.267Z,15.62
2022-10-24T05:27:24.550Z,15.60
2022-10-24T05:29:52.954Z,15.60
2022-10-24T05:32:22.594Z,15.58
2022-10-24T05:34:50.975Z,15.55
2022-10-24T05:37:19.457Z,15.55
2022-10-24T05:39:49.273Z,15.53
2022-10-24T05:42:18.193Z,15.52
2022-10-24T05:44:46.527Z,15.50
2022-10-24T05:47:14.989Z,15.48
2022-10-24T05:49:43.378Z,15.48
2022-10-24T05:52:11.694Z,15.46
2022-10-24T05:54:55.333Z,15.46
2022-10-24T05:57:30.014Z,15.46
2022-10-24T05:59:58.411Z,15.44
2022-10-24T06:02:26.913Z,15.44
2022-10-24T06:04:56.997Z,15.44
2022-10-24T06:07:25.688Z,15.44
2022-10-24T06:09:54.090Z,15.45
2022-10-24T06:12:22.436Z,15.46
2022-10-24T06:14:52.188Z,15.47
2022-10-24T06:17:20.497Z,15.47
2022-10-24T06:22:24.030Z,15.44
2022-10-24T06:24:52.621Z,15.44
2022-10-24T06:27:21.040Z,15.43
2022-10-24T06:29:49.389Z,15.43
2022-10-24T06:32:19.773Z,15.42
2022-10-24T06:34:48.093Z,15.42
2022-10-24T06:37:16.498Z,15.41
2022-10-24T06:39:44.844Z,15.40
2022-10-24T06:42:13.151Z,15.40
2022-10-24T06:44:42.762Z,15.38
2022-10-24T06:47:11.166Z,15.38
2022-10-24T06:49:40.943Z,15.40
2022-10-24T06:52:09.286Z,15.39
2022-10-24T06:54:39.071Z,15.39
2022-10-24T06:57:07.487Z,15.41
2022-10-24T06:59:35.845Z,15.43
2022-10-24T07:02:05.999Z,15.44
2022-10-24T07:04:34.674Z,15.47
2022-10-24T07:07:04.365Z,15.49
2022-10-24T07:09:32.726Z,15.51
2022-10-24T07:12:01.030Z,15.55
2022-10-24T07:14:29.403Z,15.57
2022-10-24T07:16:58.336Z,15.60
2022-10-24T07:19:26.624Z,15.63
2022-10-24T07:21:54.934Z,15.65
2022-10-24T07:24:24.566Z,15.68
2022-10-24T07:26:52.850Z,15.70
2022-10-24T07:29:21.120Z,15.73
2022-10-24T07:31:49.525Z,15.75
2022-10-24T07:34:18.480Z,15.77
2022-10-24T07:36:46.791Z,15.78
2022-10-24T07:39:15.104Z,15.80
2022-10-24T07:41:44.723Z,15.80
2022-10-24T07:44:13.069Z,15.82
2022-10-24T07:46:42.618Z,15.82
2022-10-24T07:49:11.236Z,15.86
2022-10-24T07:51:39.606Z,15.87
2022-10-24T07:54:08.011Z,15.90
2022-10-24T07:56:36.383Z,15.91
2022-10-24T07:59:09.649Z,15.93
2022-10-24T08:01:42.275Z,15.94
2022-10-24T08:04:11.065Z,15.98
2022-10-24T08:06:40.640Z,16.00
2022-10-24T08:09:09.261Z,16.04
2022-10-24T08:11:37.571Z,16.09
2022-10-24T08:14:07.255Z,16.13
2022-10-24T08:16:35.597Z,16.17
2022-10-24T08:19:04.019Z,16.20
2022-10-24T08:21:33.453Z,16.23
2022-10-24T08:24:01.823Z,16.27
2022-10-24T08:26:30.131Z,16.29
2022-10-24T08:28:58.416Z,16.34
2022-10-24T08:31:28.059Z,16.38
2022-10-24T08:33:57.212Z,16.39
2022-10-24T08:36:28.768Z,16.44
2022-10-24T08:38:57.698Z,16.42
2022-10-24T08:41:31.643Z,16.41
2022-10-24T08:44:03.423Z,16.44
2022-10-24T08:46:50.271Z,16.47
2022-10-24T08:49:29.252Z,16.48
2022-10-24T08:52:01.511Z,16.50
2022-10-24T08:54:36.821Z,16.50
2022-10-24T08:57:07.103Z,16.53
2022-10-24T08:59:37.433Z,16.53
2022-10-24T09:02:18.193Z,16.55
2022-10-24T09:04:52.685Z,16.55
2022-10-24T09:09:53.258Z,16.55
2022-10-24T09:12:22.442Z,16.55
2022-10-24T09:14:56.037Z,16.55
2022-10-24T09:17:31.200Z,16.58
2022-10-24T09:20:01.429Z,16.63
2022-10-24T09:22:34.535Z,16.64
2022-10-24T09:25:05.814Z,16.67
2022-10-24T09:27:37.995Z,16.73
2022-10-24T09:30:08.434Z,16.77
2022-10-24T09:32:38.157Z,16.80
2022-10-24T09:35:09.006Z,16.84
2022-10-24T09:37:44.382Z,16.83
2022-10-24T09:40:22.630Z,16.81
2022-10-24T09:42:59.628Z,16.82
2022-10-24T09:45:40.550Z,16.81
2022-10-24T09:48:26.016Z,16.80
2022-10-24T09:50:58.478Z,16.80
2022-10-24T09:53:30.320Z,16.84
2022-10-24T09:56:00.578Z,16.87
2022-10-24T09:58:32.735Z,16.88
2022-10-24T10:01:05.129Z,16.90
2022-10-24T10:03:35.795Z,16.93
2022-10-24T10:06:15.438Z,16.96
2022-10-24T10:08:50.974Z,17.01
2022-10-24T10:11:27.445Z,17.04
2022-10-24T10:13:55.980Z,17.06
2022-10-24T10:16:26.837Z,17.10
2022-10-24T10:19:05.305Z,17.15
2022-10-24T10:21:56.229Z,17.16
2022-10-24T10:24:27.815Z,17.18
2022-10-24T10:26:56.104Z,17.21
2022-10-24T10:29:25.339Z,17.21
2022-10-24T10:32:01.069Z,17.20
2022-10-24T10:34:39.069Z,17.20
2022-10-24T10:37:28.144Z,17.21
2022-10-24T10:40:21.543Z,17.20
2022-10-24T10:43:05.486Z,17.19
2022-10-24T10:45:37.296Z,17.18
2022-10-24T10:48:32.802Z,17.17
2022-10-24T10:51:09.482Z,17.18
2022-10-24T10:53:43.459Z,17.18
2022-10-24T10:56:23.359Z,17.15
2022-10-24T10:59:03.452Z,17.13
2022-10-24T11:01:48.172Z,17.16
2022-10-24T11:04:20.532Z,17.17
2022-10-24T11:06:57.878Z,17.18
2022-10-24T11:09:30.722Z,17.17
2022-10-24T11:12:08.581Z,17.19
2022-10-24T11:14:40.091Z,17.20
2022-10-24T11:17:15.985Z,17.19
2022-10-24T11:19:55.937Z,17.18
2022-10-24T11:22:29.337Z,17.17
2022-10-24T11:25:02.583Z,17.19
2022-10-24T11:27:39.806Z,17.16
2022-10-24T11:30:16.114Z,17.17
2022-10-24T11:32:51.712Z,17.19
2022-10-24T11:35:28.721Z,17.21
2022-10-24T11:38:03.640Z,17.20
2022-10-24T11:40:32.082Z,17.19
2022-10-24T11:43:12.568Z,17.20
2022-10-24T11:45:46.889Z,17.22
2022-10-24T11:48:20.312Z,17.19
2022-10-24T11:50:53.979Z,17.20
2022-10-24T11:53:45.806Z,17.20
2022-10-24T11:56:23.653Z,17.19
2022-10-24T11:58:59.675Z,17.20
2022-10-24T12:01:48.274Z,17.20
2022-10-24T12:04:41.693Z,17.17
2022-10-24T12:07:48.708Z,17.15
2022-10-24T12:10:40.616Z,17.14
2022-10-24T12:13:32.852Z,17.14
2022-10-24T12:16:08.734Z,17.14
2022-10-24T12:18:40.729Z,17.16
2022-10-24T12:21:12.654Z,17.18
2022-10-24T12:23:42.148Z,17.18
2022-10-24T12:26:20.162Z,17.18
2022-10-24T12:28:55.888Z,17.18
2022-10-24T12:31:29.213Z,17.19
2022-10-24T12:34:34.352Z,17.21
2022-10-24T12:37:08.175Z,17.24
2022-10-24T12:39:41.446Z,17.29
2022-10-24T12:42:17.533Z,17.30
2022-10-24T12:44:47.944Z,17.34
2022-10-24T12:47:37.494Z,17.42
2022-10-24T12:50:57.231Z,17.47
2022-10-24T12:54:03.116Z,17.48
2022-10-24T12:56:32.879Z,17.52
2022-10-24T12:59:05.449Z,17.57
2022-10-24T13:01:37.601Z,17.61
2022-10-24T13:04:36.929Z,17.64
2022-10-24T13:07:37.590Z,17.67
2022-10-24T13:10:25.810Z,17.68
2022-10-24T13:15:52.728Z,17.73
2022-10-24T13:18:45.218Z,17.77
2022-10-24T13:21:24.280Z,17.80
2022-10-24T13:23:53.067Z,17.86
2022-10-24T13:26:38.388Z,17.90
2022-10-24T13:29:14.129Z,17.93
2022-10-24T13:31:49.341Z,17.96
2022-10-24T13:34:26.524Z,17.98
2022-10-24T13:37:02.390Z,18.02
2022-10-24T13:39:38.747Z,18.00
2022-10-24T13:42:24.871Z,18.04
2022-10-24T13:44:58.615Z,18.09
2022-10-24T13:47:32.581Z,18.20
2022-10-24T13:50:04.866Z,18.33
2022-10-24T13:52:39.510Z,18.49
2022-10-24T13:55:23.149Z,18.63
2022-10-24T13:57:57.317Z,18.69
2022-10-24T14:00:28.519Z,18.74
2022-10-24T14:03:00.830Z,18.71
2022-10-24T14:05:35.928Z,18.62
2022-10-24T14:08:06.487Z,18.57
2022-10-24T14:10:35.227Z,18.57
2022-10-24T14:13:05.064Z,18.59
2022-10-24T14:15:34.278Z,18.64
2022-10-24T14:18:14.193Z,18.74
2022-10-24T14:20:43.426Z,18.79
2022-10-24T14:23:25.404Z,18.80
2022-10-24T14:25:57.478Z,18.83
2022-10-24T14:28:28.261Z,18.89
2022-10-24T14:30:59.144Z,18.92
2022-10-24T14:33:30.353Z,18.85
2022-10-24T14:36:01.215Z,18.80
2022-10-24T14:38:29.919Z,18.74
2022-10-24T14:41:09.171Z,18.67
2022-10-24T14:43:41.894Z,18.63
2022-10-24T14:46:35.350Z,18.65
2022-10-24T14:49:21.689Z,18.67
2022-10-24T14:54:23.998Z,18.66
2022-10-24T14:56:54.323Z,18.66
2022-10-24T14:59:26.907Z,18.60
2022-10-24T15:01:56.725Z,18.57
2022-10-24T15:04:33.113Z,18.57
2022-10-24T15:07:14.123Z,18.53
2022-10-24T15:09:53.023Z,18.49
2022-10-24T15:12:28.060Z,18.45
2022-10-24T15:14:59.907Z,18.41
2022-10-24T15:17:32.724Z,18.40
2022-10-24T15:20:04.879Z,18.37
2022-10-24T15:22:37.441Z,18.33
2022-10-24T15:25:10.117Z,18.26
2022-10-24T15:27:41.359Z,18.18
2022-10-24T15:30:15.174Z,18.15
2022-10-24T15:32:43.904Z,18.14
2022-10-24T15:35:14.421Z,18.11
2022-10-24T15:37:53.110Z,18.10
2022-10-24T15:40:24.108Z,18.05
2022-10-24T15:42:52.440Z,17.98
2022-10-24T15:45:21.392Z,17.94
2022-10-24T15:47:50.901Z,17.89
2022-10-24T15:52:57.841Z,17.81
2022-10-24T15:55:28.439Z,17.76
2022-10-24T15:57:59.727Z,17.70
2022-10-24T16:00:28.138Z,17.65
2022-10-24T16:03:00.705Z,17.63
2022-10-24T16:05:33.130Z,17.59
2022-10-24T16:08:01.558Z,17.54
2022-10-24T16:10:29.948Z,17.48
2022-10-24T16:12:58.254Z,17.42
2022-10-24T16:15:29.643Z,17.32
2022-10-24T16:17:57.983Z,17.21
2022-10-24T16:20:26.572Z,17.16
2022-10-24T16:22:56.271Z,17.10
2022-10-24T16:25:26.956Z,17.04
2022-10-24T16:27:55.512Z,16.99
2022-10-24T16:30:26.032Z,16.94
2022-10-24T16:32:54.457Z,16.89
2022-10-24T16:35:25.653Z,16.84
2022-10-24T16:37:57.104Z,16.79
2022-10-24T16:40:27.626Z,16.74
2022-10-24T16:42:57.820Z,16.70
2022-10-24T16:45:26.441Z,16.68
2022-10-24T16:47:54.774Z,16.66
2022-10-24T16:50:26.142Z,16.64
2022-10-24T16:52:57.582Z,16.59
2022-10-24T16:55:26.347Z,16.58
2022-10-24T16:57:54.755Z,16.57
2022-10-24T17:00:24.111Z,16.55
2022-10-24T17:02:55.148Z,16.54
2022-10-24T17:05:26.913Z,16.50
2022-10-24T17:07:57.168Z,16.48
2022-10-24T17:10:25.637Z,16.47
2022-10-24T17:12:54.351Z,16.46
2022-10-24T17:15:22.961Z,16.44
2022-10-24T17:17:51.630Z,16.42
2022-10-24T17:20:20.010Z,16.39
2022-10-24T17:22:49.253Z,16.38
2022-10-24T17:25:23.422Z,16.36
2022-10-24T17:27:52.705Z,16.35
2022-10-24T17:30:23.481Z,16.32
2022-10-24T17:32:52.009Z,16.24
2022-10-24T17:35:22.883Z,16.04
2022-10-24T17:38:02.307Z,15.87
2022-10-24T17:40:40.953Z,15.71
2022-10-24T17:43:18.033Z,15.52
2022-10-24T17:45:47.344Z,15.35
2022-10-24T17:48:16.336Z,15.20
2022-10-24T17:50:45.886Z,15.07
2022-10-24T17:53:15.038Z,14.95
2022-10-24T17:55:46.791Z,14.82
2022-10-24T17:58:16.522Z,14.75
2022-10-24T18:00:45.949Z,14.68
2022-10-24T18:03:15.124Z,14.61
2022-10-24T18:05:43.549Z,14.57
2022-10-24T18:08:12.968Z,14.52
2022-10-24T18:10:42.230Z,14.48
2022-10-24T18:13:12.120Z,14.42
2022-10-24T18:15:40.467Z,14.36
2022-10-24T18:18:08.827Z,14.29
2022-10-24T18:20:37.230Z,14.24
2022-10-24T18:23:05.634Z,14.18
2022-10-24T18:25:33.995Z,14.15
2022-10-24T18:28:02.331Z,14.13
2022-10-24T18:30:32.190Z,14.11
2022-10-24T18:33:00.598Z,14.09
2022-10-24T18:35:33.019Z,14.08
2022-10-24T18:38:02.062Z,14.08
2022-10-24T18:40:33.356Z,14.06
2022-10-24T18:43:05.224Z,14.02
2022-10-24T18:45:36.169Z,13.99
2022-10-24T18:48:05.307Z,13.97
2022-10-24T18:50:33.955Z,13.94
2022-10-24T18:53:05.725Z,13.92
2022-10-24T18:55:36.351Z,13.91
2022-10-24T18:58:05.228Z,13.89
2022-10-24T19:00:38.112Z,13.88
2022-10-24T19:03:18.225Z,13.86
2022-10-24T19:05:52.020Z,13.85
2022-10-24T19:08:25.531Z,13.85
2022-10-24T19:10:56.300Z,13.84
2022-10-24T19:13:26.386Z,13.84
2022-10-24T19:15:58.660Z,13.83
2022-10-24T19:18:29.599Z,13.84
2022-10-24T19:20:57.934Z,13.83
2022-10-24T19:23:26.439Z,13.83
2022-10-24T19:25:54.911Z,13.83
2022-10-24T19:28:23.358Z,13.82
2022-10-24T19:30:51.780Z,13.83
2022-10-24T19:33:24.944Z,13.82
2022-10-24T19:35:53.343Z,13.82
2022-10-24T19:38:21.873Z,13.82
2022-10-24T19:40:52.625Z,13.84
2022-10-24T19:43:21.676Z,13.84
2022-10-24T19:46:07.210Z,13.84
2022-10-24T19:48:37.888Z,13.84
2022-10-24T19:51:07.839Z,13.85
2022-10-24T19:53:37.094Z,13.85
2022-10-24T19:56:06.822Z,13.85
2022-10-24T19:58:35.179Z,13.86
2022-10-24T20:01:07.556Z,13.87
2022-10-24T20:03:38.530Z,13.87
2022-10-24T20:06:07.494Z,13.88
2022-10-24T20:08:36.395Z,13.89
2022-10-24T20:11:06.043Z,13.91
2022-10-24T20:13:35.059Z,13.93
2022-10-24T20:16:05.870Z,13.95
2022-10-24T20:18:35.605Z,13.97
2022-10-24T20:21:07.321Z,14.00
2022-10-24T20:23:36.362Z,14.03
2022-10-24T20:26:07.216Z,14.06
2022-10-24T20:28:36.608Z,14.09
2022-10-24T20:31:05.496Z,14.10
2022-10-24T20:33:33.802Z,14.11
2022-10-24T20:36:02.769Z,14.12
2022-10-24T20:38:33.908Z,14.13
2022-10-24T20:41:02.857Z,14.14
2022-10-24T20:43:32.579Z,14.13
2022-10-24T20:46:04.871Z,14.12
2022-10-24T20:48:33.745Z,14.13
2022-10-24T20:51:06.767Z,14.12
2022-10-24T20:53:36.480Z,14.12
2022-10-24T20:56:06.402Z,14.12
2022-10-24T20:58:34.835Z,14.12
2022-10-24T21:01:07.538Z,14.12
2022-10-24T21:03:36.973Z,14.10
2022-10-24T21:06:06.925Z,14.10
2022-10-24T21:08:36.582Z,14.09
2022-10-24T21:11:07.082Z,14.09
2022-10-24T21:13:35.470Z,14.09
2022-10-24T21:16:04.048Z,14.07
2022-10-24T21:18:32.694Z,14.07
2022-10-24T21:21:07.066Z,14.07
2022-10-24T21:23:37.000Z,14.06
2022-10-24T21:26:06.797Z,14.06
2022-10-24T21:28:35.782Z,14.05
2022-10-24T21:31:05.831Z,14.03
2022-10-24T21:33:34.556Z,14.02
2022-10-24T21:36:06.251Z,14.02
2022-10-24T21:38:36.358Z,14.01
2022-10-24T21:41:06.677Z,14.01
2022-10-24T21:43:36.630Z,13.99
2022-10-24T21:46:07.408Z,13.99
2022-10-24T21:48:36.416Z,13.97
2022-10-24T21:51:07.398Z,13.98
2022-10-24T21:53:41.577Z,13.97
2022-10-24T21:56:12.138Z,13.96
2022-10-24T21:58:41.131Z,13.94
2022-10-24T22:01:14.273Z,13.94
2022-10-24T22:03:43.089Z,13.93
2022-10-24T22:06:14.442Z,13.92
2022-10-24T22:08:45.166Z,13.90
2022-10-24T22:11:15.438Z,13.89
2022-10-24T22:13:44.104Z,13.89
2022-10-24T22:16:14.227Z,13.87
2022-10-24T22:18:42.816Z,13.87
2022-10-24T22:21:21.648Z,13.86
2022-10-24T22:24:17.055Z,13.86
2022-10-24T22:26:46.109Z,13.85
2022-10-24T22:29:16.667Z,13.83
2022-10-24T22:31:46.082Z,13.84
2022-10-24T22:34:18.076Z,13.83
2022-10-24T22:36:56.152Z,13.82
2022-10-24T22:39:27.005Z,13.82
2022-10-24T22:41:55.997Z,13.82
2022-10-24T22:44:24.798Z,13.82
2022-10-24T22:47:28.141Z,13.82
2022-10-24T22:50:03.827Z,13.82
2022-10-24T22:52:32.561Z,13.82
2022-10-24T22:55:03.998Z,13.82
2022-10-24T23:00:08.092Z,13.81
2022-10-24T23:02:41.598Z,13.82
2022-10-24T23:05:16.824Z,13.81
2022-10-24T23:07:50.907Z,13.80
2022-10-24T23:10:22.917Z,13.80
2022-10-24T23:12:52.214Z,13.81
2022-10-24T23:15:22.592Z,13.82
2022-10-24T23:17:51.619Z,13.83
2022-10-24T23:20:28.290Z,13.85
2022-10-24T23:23:09.205Z,13.86
2022-10-24T23:26:09.094Z,13.86
2022-10-24T23:28:46.214Z,13.88
2022-10-24T23:31:15.014Z,13.89
2022-10-24T23:33:43.808Z,13.89
2022-10-24T23:36:19.326Z,13.89
2022-10-24T23:38:48.356Z,13.89
2022-10-24T23:41:18.754Z,13.87
2022-10-24T23:43:47.564Z,13.87
2022-10-24T23:46:25.265Z,13.85
2022-10-24T23:49:07.749Z,13.83
2022-10-24T23:51:41.871Z,13.83
2022-10-24T23:54:12.516Z,13.81
2022-10-24T23:56:42.694Z,13.81
2022-10-24T23:59:11.005Z,13.80
